Time;durP1;ratioP1;P1;durP2;ratioP2;P2;SDS_P1;SDS_P2;PMS_P1;PMS_P2;Temp;Humidity;BMP_temperature;BMP_pressure;BME280_temperature;BME280_humidity;BME280_pressure;Samples;Min_cycle;Max_cycle;Signal;HPM_P1;HPM_P2
2022/09/20 00:00:38;;;;;;;9.52;6.30;;;;;;;10.05;84.03;98796.50;7385103;19;20014;-71
2022/09/20 00:03:05;;;;;;;10.52;6.40;;;;;;;10.06;83.94;98790.25;7387275;19;20380;-71
2022/09/20 00:05:36;;;;;;;10.48;5.40;;;;;;;10.03;84.20;98787.88;7383845;19;20407;-71
2022/09/20 00:08:04;;;;;;;11.13;5.78;;;;;;;10.07;84.68;98784.81;7381347;19;20010;-71
2022/09/20 00:10:38;;;;;;;7.03;5.13;;;;;;;10.15;83.98;98778.81;7380585;19;20482;-71
2022/09/20 00:13:06;;;;;;;14.07;5.60;;;;;;;10.05;83.94;98784.13;7381310;19;20035;-71
2022/09/20 00:15:33;;;;;;;9.85;5.70;;;;;;;9.92;83.76;98783.59;7389276;19;22367;-71
2022/09/20 00:18:00;;;;;;;11.77;5.20;;;;;;;9.85;83.67;98782.50;7388157;19;20024;-71
2022/09/20 00:20:27;;;;;;;11.75;6.07;;;;;;;9.75;83.39;98779.03;7395134;19;20039;-71
2022/09/20 00:22:54;;;;;;;9.80;5.63;;;;;;;9.69;83.74;98775.16;7393506;19;20514;-71
2022/09/20 00:25:21;;;;;;;11.65;5.80;;;;;;;9.67;83.71;98772.63;7392526;19;20090;-71
2022/09/20 00:27:48;;;;;;;10.40;5.22;;;;;;;9.64;83.81;98777.38;7384416;19;20486;-70
2022/09/20 00:30:14;;;;;;;9.63;5.43;;;;;;;9.57;83.78;98779.72;7393045;19;20014;-71
2022/09/20 00:32:41;;;;;;;6.28;5.03;;;;;;;9.54;83.69;98782.66;7391320;19;20051;-70
2022/09/20 00:35:09;;;;;;;8.30;5.75;;;;;;;9.47;83.87;98783.34;7392152;19;20022;-70
2022/09/20 00:37:38;;;;;;;14.13;6.43;;;;;;;9.52;84.47;98781.13;7389227;19;20091;-70
2022/09/20 00:40:08;;;;;;;9.68;6.00;;;;;;;9.53;84.98;98778.34;7392369;19;20014;-70
2022/09/20 00:42:35;;;;;;;10.15;6.03;;;;;;;9.61;84.75;98777.63;7392288;19;20018;-71
2022/09/20 00:45:05;;;;;;;11.75;5.78;;;;;;;9.66;84.75;98778.91;7391192;19;20490;-70
2022/09/20 00:47:42;;;;;;;7.53;5.38;;;;;;;9.73;84.66;98783.63;7387648;19;20015;-70
2022/09/20 00:50:33;;;;;;;9.80;6.05;;;;;;;9.82;84.84;98780.13;7388186;19;20056;-71
2022/09/20 00:53:08;;;;;;;9.93;5.13;;;;;;;9.92;84.72;98780.94;7392346;19;20025;-71
2022/09/20 00:55:38;;;;;;;8.95;5.45;;;;;;;10.03;84.67;98777.31;7390176;19;20038;-70
2022/09/20 00:58:05;;;;;;;7.30;5.38;;;;;;;10.05;84.35;98780.66;7384615;19;20018;-71
2022/09/20 01:00:32;;;;;;;11.02;5.00;;;;;;;9.88;85.15;98774.28;7389474;19;20022;-70
2022/09/20 01:03:02;;;;;;;8.80;5.18;;;;;;;10.06;84.56;98782.34;7390518;19;20065;-71
2022/09/20 01:05:29;;;;;;;10.32;5.88;;;;;;;10.04;84.31;98779.81;7388451;19;20490;-70
2022/09/20 01:07:56;;;;;;;9.82;6.28;;;;;;;10.04;84.38;98779.81;7384935;19;20365;-70
2022/09/20 01:10:23;;;;;;;10.85;6.45;;;;;;;10.08;84.54;98783.00;7390710;19;20015;-70
2022/09/20 01:12:51;;;;;;;12.38;6.38;;;;;;;10.10;84.90;98779.25;7389841;19;20018;-70
2022/09/20 01:15:18;;;;;;;12.02;6.63;;;;;;;10.22;84.87;98771.16;7391457;19;20007;-70
2022/09/20 01:17:47;;;;;;;9.60;5.93;;;;;;;10.33;84.51;98774.47;7385981;19;20026;-70
2022/09/20 01:20:31;;;;;;;14.77;5.70;;;;;;;10.33;84.31;98778.94;7389674;19;20014;-70
2022/09/20 01:23:07;;;;;;;10.95;5.53;;;;;;;10.25;84.51;98778.81;7386610;19;20010;-71
2022/09/20 01:25:46;;;;;;;9.57;5.68;;;;;;;10.20;84.44;98778.41;7388551;19;20367;-70
2022/09/20 01:28:13;;;;;;;9.32;5.22;;;;;;;10.23;83.86;98775.47;7389104;19;20022;-70
2022/09/20 01:30:47;;;;;;;9.93;5.28;;;;;;;10.24;84.19;98777.13;7388513;19;20031;-70
2022/09/20 01:33:27;;;;;;;11.02;5.72;;;;;;;10.27;84.07;98790.06;7385999;19;20023;-70
2022/09/20 01:35:56;;;;;;;9.43;5.45;;;;;;;10.24;84.03;98779.75;7387160;19;20522;-71
2022/09/20 01:38:33;;;;;;;10.52;5.13;;;;;;;10.22;84.03;98773.81;7386757;19;20010;-70
2022/09/20 01:41:10;;;;;;;11.63;5.13;;;;;;;10.15;83.81;98767.41;7387847;19;20015;-70
2022/09/20 01:43:48;;;;;;;7.93;5.15;;;;;;;10.21;83.82;98766.84;7385674;19;20014;-70
2022/09/20 01:46:29;;;;;;;7.65;4.88;;;;;;;10.18;83.89;98775.06;7389292;19;20018;-70
2022/09/20 01:49:05;;;;;;;9.18;5.72;;;;;;;10.21;83.68;98772.13;7390397;19;20015;-71
2022/09/20 01:52:05;;;;;;;8.55;5.15;;;;;;;10.16;84.11;98769.91;7387195;19;20018;-70
2022/09/20 01:54:56;;;;;;;16.63;5.07;;;;;;;10.20;84.38;98773.09;7383410;19;20047;-70
2022/09/20 01:57:52;;;;;;;12.52;5.30;;;;;;;10.30;83.95;98763.38;7386320;19;20366;-70
2022/09/20 02:00:22;;;;;;;7.68;4.95;;;;;;;10.34;83.77;98770.03;7388708;19;20018;-70
2022/09/20 02:03:25;;;;;;;14.68;5.43;;;;;;;10.01;84.77;98766.91;7389772;19;20026;-70
2022/09/20 02:06:22;;;;;;;16.88;5.70;;;;;;;10.04;85.09;98768.41;7386074;19;20026;-70
2022/09/20 02:09:07;;;;;;;7.93;5.30;;;;;;;10.27;84.15;98771.56;7385696;19;20336;-70
2022/09/20 02:11:36;;;;;;;12.05;6.03;;;;;;;10.30;83.81;98766.00;7386143;19;20007;-71
2022/09/20 02:14:17;;;;;;;11.30;7.10;;;;;;;10.26;84.37;98772.53;7386715;19;20370;-70
2022/09/20 02:17:12;;;;;;;14.10;6.82;;;;;;;10.24;84.30;98772.69;7385505;19;20018;-71
2022/09/20 02:19:51;;;;;;;12.18;7.63;;;;;;;10.23;84.40;98767.53;7386981;19;20019;-71
2022/09/20 02:22:30;;;;;;;13.48;6.35;;;;;;;10.28;83.89;98765.31;7390736;19;20043;-70
2022/09/20 02:25:08;;;;;;;16.63;8.93;;;;;;;10.32;84.18;98764.03;7382298;19;20050;-71
2022/09/20 02:27:52;;;;;;;12.07;6.43;;;;;;;10.35;84.20;98763.78;7383794;19;20039;-70
2022/09/20 02:30:33;;;;;;;11.70;7.38;;;;;;;10.44;83.24;98749.66;7387847;19;20015;-71
2022/09/20 02:33:34;;;;;;;13.60;6.47;;;;;;;10.35;83.60;98761.13;7388878;19;20014;-71
2022/09/20 02:36:26;;;;;;;11.93;6.32;;;;;;;10.47;83.47;98754.66;7384869;19;20014;-71
2022/09/20 02:38:58;;;;;;;7.90;6.60;;;;;;;10.39;83.28;98748.44;7387559;19;20485;-71
2022/09/20 02:41:44;;;;;;;14.00;6.15;;;;;;;10.38;83.69;98760.00;7383878;19;20481;-71
2022/09/20 02:44:32;;;;;;;11.48;6.75;;;;;;;10.38;83.53;98760.84;7387601;19;20035;-71
2022/09/20 02:47:11;;;;;;;9.68;5.75;;;;;;;10.42;83.22;98761.38;7383121;19;20042;-70
2022/09/20 02:49:52;;;;;;;13.50;5.35;;;;;;;10.46;83.06;98768.88;7384995;19;20010;-71
2022/09/20 02:52:27;;;;;;;10.15;3.67;;;;;;;10.53;82.08;98761.16;7389371;19;20042;-71
2022/09/20 02:55:24;;;;;;;12.43;4.22;;;;;;;10.18;82.93;98770.59;7387101;19;20019;-71
2022/09/20 02:58:28;;;;;;;9.23;3.53;;;;;;;10.04;83.46;98768.41;7378699;19;20015;-71
2022/09/20 03:01:16;;;;;;;5.20;3.33;;;;;;;9.96;83.23;98774.41;7387866;19;20371;-71
2022/09/20 03:03:58;;;;;;;12.32;3.15;;;;;;;9.93;83.12;98774.69;7386553;19;20014;-70
2022/09/20 03:06:40;;;;;;;8.85;3.17;;;;;;;9.91;82.90;98778.47;7384674;19;20014;-71
2022/09/20 03:10:03;;;;;;;5.23;2.73;;;;;;;9.98;82.43;98771.63;7387836;19;20010;-71
2022/09/20 03:12:37;;;;;;;7.38;3.40;;;;;;;10.03;81.94;98778.16;7380805;19;20014;-71
2022/09/20 03:15:31;;;;;;;7.72;2.97;;;;;;;9.83;82.61;98781.81;7377954;19;20494;-70
2022/09/20 03:18:21;;;;;;;5.03;2.72;;;;;;;9.74;82.98;98777.34;7379828;19;20039;-71
2022/09/20 03:21:02;;;;;;;11.13;3.20;;;;;;;9.74;83.03;98783.50;7384270;19;20031;-71
2022/09/20 03:23:53;;;;;;;3.83;2.55;;;;;;;9.71;83.28;98782.91;7388832;19;20018;-71
2022/09/20 03:26:29;;;;;;;7.68;2.92;;;;;;;9.62;83.41;98784.59;7383961;19;20021;-71
2022/09/20 03:29:00;;;;;;;7.47;3.03;;;;;;;9.61;83.48;98783.78;7385501;19;20058;-72
2022/09/20 03:31:46;;;;;;;7.30;2.60;;;;;;;9.66;83.61;98784.19;7383831;19;20046;-71
2022/09/20 03:34:36;;;;;;;7.80;2.95;;;;;;;9.83;82.60;98781.81;7384001;19;20022;-71
2022/09/20 03:37:28;;;;;;;10.68;3.28;;;;;;;9.86;82.63;98781.53;7381158;19;20015;-71
2022/09/20 03:40:29;;;;;;;6.68;2.65;;;;;;;9.88;83.11;98784.88;7382054;19;20023;-71
2022/09/20 03:43:03;;;;;;;8.40;2.70;;;;;;;10.06;82.51;98791.09;7386294;19;20025;-71
2022/09/20 03:45:42;;;;;;;9.98;2.95;;;;;;;9.94;82.72;98786.94;7386179;19;20011;-71
2022/09/20 03:48:38;;;;;;;8.45;2.50;;;;;;;9.88;83.00;98787.50;7378806;19;20011;-71
2022/09/20 03:51:28;;;;;;;6.40;2.85;;;;;;;9.88;82.88;98792.78;7391819;19;20383;-71
2022/09/20 03:54:21;;;;;;;8.13;3.38;;;;;;;9.96;82.47;98792.91;7390958;19;20035;-71
2022/09/20 03:57:02;;;;;;;9.45;3.10;;;;;;;9.96;82.65;98792.91;7390063;19;20493;-71
2022/09/20 04:00:09;;;;;;;6.32;2.50;;;;;;;9.99;82.85;98795.28;7386752;19;20010;-71
2022/09/20 04:02:39;;;;;;;6.40;2.50;;;;;;;9.88;83.10;98796.25;7384100;19;20010;-71
2022/09/20 04:05:09;;;;;;;7.63;2.95;;;;;;;9.85;83.22;98790.44;7381942;19;20018;-71
2022/09/20 04:08:28;;;;;;;6.15;2.67;;;;;;;9.91;82.80;98794.31;7383562;19;20022;-71
2022/09/20 04:11:14;;;;;;;4.90;2.28;;;;;;;9.86;82.73;98794.72;7383926;19;20018;-71
2022/09/20 04:14:02;;;;;;;5.05;2.75;;;;;;;9.83;82.46;98806.41;7386025;19;20010;-72
2022/09/20 04:16:57;;;;;;;6.55;3.08;;;;;;;9.95;81.62;98801.81;7384708;19;20018;-71
2022/09/20 04:19:44;;;;;;;7.78;2.25;;;;;;;9.99;80.75;98800.56;7389170;19;20012;-71
2022/09/20 04:22:11;;;;;;;7.00;3.20;;;;;;;9.99;81.31;98802.38;7389605;19;20019;-71
2022/09/20 04:24:51;;;;;;;5.70;2.85;;;;;;;9.94;81.64;98797.50;7391441;19;20007;-71
2022/09/20 04:27:26;;;;;;;10.45;3.28;;;;;;;9.86;82.23;98802.66;7386673;19;20078;-71
2022/09/20 04:30:04;;;;;;;4.65;2.45;;;;;;;9.84;82.14;98800.16;7388580;19;20063;-71
2022/09/20 04:32:53;;;;;;;8.40;2.92;;;;;;;9.72;82.83;98796.00;7391369;19;20090;-70
2022/09/20 04:38:36;;;;;;;8.23;3.22;;;;;;;9.40;83.71;98799.75;7390487;19;20045;-71
2022/09/20 04:41:20;;;;;;;10.65;3.05;;;;;;;9.43;84.19;98803.94;7390952;19;20031;-72
2022/09/20 04:44:05;;;;;;;9.15;2.88;;;;;;;9.59;84.33;98801.56;7388598;19;20128;-71
2022/09/20 04:46:53;;;;;;;6.22;2.70;;;;;;;9.70;83.35;98807.69;7390835;19;20018;-71
2022/09/20 04:49:24;;;;;;;9.07;3.20;;;;;;;9.60;83.83;98805.84;7392072;19;20010;-71
2022/09/20 04:51:57;;;;;;;11.18;3.28;;;;;;;9.58;84.24;98809.63;7390672;19;20489;-71
2022/09/20 04:54:46;;;;;;;10.52;3.25;;;;;;;9.55;84.45;98816.00;7391379;19;20010;-71
2022/09/20 04:57:22;;;;;;;9.43;3.38;;;;;;;9.56;84.03;98817.69;7387098;19;20042;-70
2022/09/20 05:00:06;;;;;;;5.15;3.03;;;;;;;9.41;84.25;98819.91;7387656;19;20035;-71
2022/09/20 05:02:49;;;;;;;11.95;4.15;;;;;;;9.26;84.30;98826.53;7391278;19;20011;-71
2022/09/20 05:05:50;;;;;;;9.13;3.65;;;;;;;9.14;84.58;98827.66;7389827;19;20019;-71
2022/09/20 05:08:41;;;;;;;7.53;3.33;;;;;;;9.11;84.55;98828.75;7385688;19;20695;-71
2022/09/20 05:11:29;;;;;;;11.80;3.60;;;;;;;9.12;85.25;98834.84;7386567;19;20054;-71
2022/09/20 05:14:39;;;;;;;9.68;4.07;;;;;;;9.16;84.90;98841.53;7388827;19;20037;-70
2022/09/20 05:17:36;;;;;;;8.52;3.22;;;;;;;9.14;84.81;98839.03;7384311;19;20795;-71
2022/09/20 05:20:35;;;;;;;9.35;4.07;;;;;;;9.12;84.73;98840.13;7389370;19;20078;-71
2022/09/20 05:23:12;;;;;;;9.73;4.03;;;;;;;9.07;84.69;98840.53;7388583;19;20022;-71
2022/09/20 05:26:09;;;;;;;10.75;3.95;;;;;;;9.09;84.62;98843.88;7391739;19;20023;-71
2022/09/20 05:28:48;;;;;;;9.23;3.95;;;;;;;9.06;84.62;98838.00;7388836;19;20018;-71
2022/09/20 05:31:34;;;;;;;12.02;3.78;;;;;;;9.03;84.70;98841.78;7389266;19;20017;-71
2022/09/20 05:34:14;;;;;;;8.63;3.78;;;;;;;9.00;84.77;98837.63;7389423;19;20021;-72
2022/09/20 05:37:19;;;;;;;7.93;3.28;;;;;;;8.97;84.33;98843.13;7387462;19;20019;-72
2022/09/20 05:39:53;;;;;;;4.75;3.33;;;;;;;8.96;84.13;98846.75;7391721;19;20018;-71
2022/09/20 05:42:40;;;;;;;9.77;3.63;;;;;;;8.94;84.79;98851.31;7389200;19;20031;-71
2022/09/20 05:45:42;;;;;;;7.63;3.40;;;;;;;8.94;84.91;98856.59;7386188;19;20428;-72
2022/09/20 05:48:31;;;;;;;9.10;3.88;;;;;;;9.15;85.12;98851.25;7385649;19;20030;-71
2022/09/20 05:51:22;;;;;;;8.70;4.20;;;;;;;9.44;85.52;98866.31;7388656;19;20022;-70
2022/09/20 05:54:02;;;;;;;6.65;3.83;;;;;;;9.66;85.24;98865.22;7389078;19;20403;-71
2022/09/20 05:56:35;;;;;;;8.45;3.65;;;;;;;9.94;84.84;98863.56;7388496;19;20022;-71
2022/09/20 05:59:13;;;;;;;11.80;3.35;;;;;;;9.94;84.12;98866.22;7388235;19;20051;-71
2022/09/20 06:01:54;;;;;;;9.23;3.30;;;;;;;10.03;83.51;98873.31;7384706;19;20102;-71
2022/09/20 06:04:35;;;;;;;11.50;3.70;;;;;;;9.93;83.07;98869.03;7387364;19;20021;-71
2022/09/20 06:07:10;;;;;;;6.88;3.13;;;;;;;9.97;82.88;98876.50;7383279;19;20038;-71
2022/09/20 06:09:52;;;;;;;9.90;3.10;;;;;;;10.07;82.16;98884.44;7388869;19;20029;-71
2022/09/20 06:12:30;;;;;;;5.43;2.67;;;;;;;10.23;81.77;98871.47;7384880;19;20018;-71
2022/09/20 06:15:11;;;;;;;9.18;3.28;;;;;;;10.29;81.26;98873.63;7387752;19;20010;-71
2022/09/20 06:18:02;;;;;;;5.40;2.78;;;;;;;10.62;80.46;98878.56;7383820;19;20021;-71
2022/09/20 06:20:36;;;;;;;6.43;2.58;;;;;;;10.88;79.82;98878.75;7385776;19;20026;-72
2022/09/20 06:23:04;;;;;;;9.05;2.97;;;;;;;11.10;78.72;98873.06;7382921;19;20381;-71
2022/09/20 06:25:56;;;;;;;7.97;2.42;;;;;;;11.30;77.10;98871.16;7386890;19;20432;-71
2022/09/20 06:28:29;;;;;;;11.40;2.80;;;;;;;11.07;76.34;98877.81;7383637;19;20026;-71
2022/09/20 06:30:56;;;;;;;9.77;2.90;;;;;;;10.99;77.16;98878.56;7386080;19;20051;-71
2022/09/20 06:33:25;;;;;;;7.78;2.90;;;;;;;10.81;78.10;98875.00;7382931;19;20359;-71
2022/09/20 06:35:56;;;;;;;7.80;3.05;;;;;;;10.69;77.60;98879.63;7386678;19;20010;-71
2022/09/20 06:41:27;;;;;;;6.57;2.67;;;;;;;10.61;78.08;98884.78;7386261;19;19922;-71
2022/09/20 06:43:58;;;;;;;8.98;3.00;;;;;;;10.56;78.58;98890.53;7383729;19;20026;-71
2022/09/20 06:46:29;;;;;;;6.00;2.70;;;;;;;10.69;78.69;98891.06;7383432;19;20699;-72
2022/09/20 06:48:56;;;;;;;17.00;3.13;;;;;;;11.08;77.91;98892.72;7384249;19;20063;-71
2022/09/20 06:51:25;;;;;;;12.57;2.90;;;;;;;11.19;77.16;98895.19;7380633;19;22518;-71
2022/09/20 06:53:57;;;;;;;8.77;2.60;;;;;;;11.22;75.98;98905.50;7377930;19;20022;-71
2022/09/20 06:56:28;;;;;;;7.78;2.67;;;;;;;11.25;76.08;98907.84;7380764;19;20051;-72
2022/09/20 06:58:55;;;;;;;10.88;3.20;;;;;;;11.31;76.39;98895.81;7376176;19;20026;-71
2022/09/20 07:01:23;;;;;;;10.32;2.90;;;;;;;11.50;75.34;98901.00;7380457;19;20022;-71
2022/09/20 07:03:57;;;;;;;6.28;2.33;;;;;;;11.82;74.16;98892.56;7379197;19;20018;-71
2022/09/20 07:06:28;;;;;;;8.13;2.78;;;;;;;12.03;73.91;98896.75;7378236;19;20060;-72
2022/09/20 07:08:54;;;;;;;8.23;2.75;;;;;;;12.28;72.28;98900.47;7385862;19;20034;-71
2022/09/20 07:11:22;;;;;;;5.90;2.20;;;;;;;11.97;73.61;98898.19;7385430;19;20066;-71
2022/09/20 07:13:50;;;;;;;9.43;2.40;;;;;;;12.23;73.20;98900.91;7380081;19;20014;-72
2022/09/20 07:16:17;;;;;;;7.75;2.95;;;;;;;12.34;72.19;98902.50;7380427;19;20354;-71
2022/09/20 07:18:46;;;;;;;10.55;3.58;;;;;;;12.32;71.29;98904.47;7381623;19;20031;-71
2022/09/20 07:21:17;;;;;;;11.43;2.85;;;;;;;12.18;71.76;98903.19;7388419;19;20014;-71
2022/09/20 07:23:44;;;;;;;7.60;2.70;;;;;;;12.59;71.17;98908.00;7386155;19;20022;-72
2022/09/20 07:26:20;;;;;;;8.05;3.10;;;;;;;12.25;72.12;98908.72;7387851;19;20021;-72
2022/09/20 07:28:48;;;;;;;12.98;3.58;;;;;;;12.27;72.52;98910.25;7388260;19;20042;-72
2022/09/20 07:31:17;;;;;;;13.10;2.80;;;;;;;12.24;72.53;98910.56;7385373;19;20026;-72
2022/09/20 07:33:44;;;;;;;10.75;3.47;;;;;;;12.01;72.62;98912.00;7389793;19;20014;-72
2022/09/20 07:36:13;;;;;;;11.18;3.83;;;;;;;12.29;72.09;98910.06;7391307;19;20038;-72
2022/09/20 07:38:41;;;;;;;7.35;3.42;;;;;;;12.43;70.96;98914.84;7384178;19;20564;-72
2022/09/20 07:41:09;;;;;;;15.93;4.43;;;;;;;12.30;72.75;98909.09;7386956;19;20017;-72
2022/09/20 07:43:36;;;;;;;7.90;3.20;;;;;;;12.34;72.29;98910.44;7383329;19;20018;-72
2022/09/20 07:46:02;;;;;;;10.90;2.92;;;;;;;12.15;72.38;98915.94;7384861;19;20018;-71
2022/09/20 07:48:32;;;;;;;10.82;4.03;;;;;;;12.06;72.74;98917.69;7382773;19;20486;-72
2022/09/20 07:51:04;;;;;;;7.78;3.30;;;;;;;12.28;72.75;98922.50;7389835;19;20019;-71
2022/09/20 07:53:35;;;;;;;9.70;3.60;;;;;;;12.55;71.10;98918.06;7389633;19;20054;-72
2022/09/20 07:56:03;;;;;;;16.85;3.60;;;;;;;12.80;69.21;98921.75;7384429;19;20759;-72
2022/09/20 07:58:32;;;;;;;10.18;4.53;;;;;;;12.68;69.48;98923.81;7380444;19;20396;-72
2022/09/20 08:01:02;;;;;;;9.20;4.25;;;;;;;12.56;70.04;98924.22;7390055;19;20050;-71
2022/09/20 08:03:30;;;;;;;12.25;4.30;;;;;;;12.65;69.33;98921.47;7389165;19;20420;-72
2022/09/20 08:06:01;;;;;;;9.68;3.55;;;;;;;12.85;69.54;98923.91;7390303;19;20043;-71
2022/09/20 08:08:35;;;;;;;14.25;4.07;;;;;;;12.56;69.20;98926.84;7384821;19;20025;-71
2022/09/20 08:11:04;;;;;;;9.10;3.42;;;;;;;12.60;69.77;98931.72;7389554;19;20015;-72
2022/09/20 08:13:38;;;;;;;8.93;3.00;;;;;;;12.40;69.57;98931.09;7387017;19;20019;-72
2022/09/20 08:16:26;;;;;;;7.28;2.88;;;;;;;12.28;70.27;98933.13;7377853;19;20010;-72
2022/09/20 08:18:56;;;;;;;12.05;3.92;;;;;;;12.08;69.71;98940.44;7384745;19;20010;-72
2022/09/20 08:21:23;;;;;;;12.10;4.30;;;;;;;12.29;69.92;98934.78;7387240;19;20448;-72
2022/09/20 08:23:50;;;;;;;9.90;3.38;;;;;;;12.41;69.47;98937.22;7388345;19;20799;-72
2022/09/20 08:26:23;;;;;;;9.23;2.90;;;;;;;12.68;69.73;98947.69;7391435;19;20018;-72
2022/09/20 08:28:52;;;;;;;9.48;3.20;;;;;;;13.05;69.02;98938.63;7388334;19;20043;-72
2022/09/20 08:31:21;;;;;;;11.52;2.90;;;;;;;13.37;66.40;98942.47;7385595;19;20473;-72
2022/09/20 08:33:51;;;;;;;11.18;2.80;;;;;;;13.18;66.45;98939.03;7388512;19;20030;-72
2022/09/20 08:36:20;;;;;;;10.70;2.97;;;;;;;13.49;65.14;98948.34;7385315;19;20014;-72
2022/09/20 08:38:48;;;;;;;11.20;3.05;;;;;;;13.89;63.38;98937.00;7385886;19;20041;-71
2022/09/20 08:41:38;;;;;;;10.80;2.40;;;;;;;13.62;62.47;98935.44;7390324;19;20003;-71
2022/09/20 08:44:23;;;;;;;8.38;2.58;;;;;;;13.59;65.16;98936.59;7387202;19;20022;-72
2022/09/20 08:47:21;;;;;;;14.02;2.65;;;;;;;13.76;63.00;98929.47;7385045;19;20019;-71
2022/09/20 08:49:51;;;;;;;8.77;2.67;;;;;;;14.43;60.93;98926.75;7385377;19;20051;-71
2022/09/20 08:52:35;;;;;;;8.52;2.03;;;;;;;14.76;60.02;98932.06;7384984;19;20121;-71
2022/09/20 08:55:12;;;;;;;5.53;1.75;;;;;;;14.22;61.01;98935.22;7385709;19;20014;-71
2022/09/20 08:57:39;;;;;;;7.57;2.05;;;;;;;14.03;63.64;98941.69;7381815;19;20044;-72
2022/09/20 09:00:06;;;;;;;3.83;1.63;;;;;;;13.90;63.47;98943.16;7387300;19;20023;-72
2022/09/20 09:02:34;;;;;;;10.45;2.55;;;;;;;13.38;62.38;98938.84;7383276;19;20010;-72
2022/09/20 09:05:02;;;;;;;8.45;2.00;;;;;;;13.36;64.90;98938.16;7381993;19;20035;-72
2022/09/20 09:07:29;;;;;;;8.35;2.13;;;;;;;13.79;61.24;98926.50;7381833;19;20640;-71
2022/09/20 09:09:56;;;;;;;7.50;1.85;;;;;;;14.41;59.80;98933.25;7386540;19;20031;-71
2022/09/20 09:12:29;;;;;;;9.52;2.75;;;;;;;14.67;57.80;98928.59;7384354;19;20015;-72
2022/09/20 09:14:59;;;;;;;8.60;1.90;;;;;;;15.15;57.75;98926.00;7373171;19;20014;-71
2022/09/20 09:17:27;;;;;;;5.60;1.40;;;;;;;15.01;56.03;98924.88;7380718;19;20015;-72
2022/09/20 09:19:58;;;;;;;10.77;1.67;;;;;;;14.25;56.78;98920.75;7387431;19;20027;-71
2022/09/20 09:22:38;;;;;;;15.10;2.22;;;;;;;14.19;56.63;98930.25;7384351;19;20052;-71
2022/09/20 09:25:20;;;;;;;9.68;2.45;;;;;;;14.21;60.87;98935.38;7385289;19;20029;-71
2022/09/20 09:27:56;;;;;;;5.80;2.58;;;;;;;14.04;58.37;98927.38;7382405;19;20015;-72
2022/09/20 09:30:31;;;;;;;5.95;1.98;;;;;;;14.39;58.22;98925.41;7386726;19;20018;-71
2022/09/20 09:33:25;;;;;;;6.15;1.65;;;;;;;14.36;57.98;98920.41;7389733;19;20019;-71
2022/09/20 09:35:55;;;;;;;5.85;1.40;;;;;;;14.75;57.17;98917.09;7388250;19;20043;-72
2022/09/20 09:38:28;;;;;;;9.15;1.55;;;;;;;14.73;58.14;98919.09;7377399;19;20047;-71
2022/09/20 09:41:00;;;;;;;11.07;1.58;;;;;;;14.93;57.64;98922.22;7384204;19;20015;-70
2022/09/20 09:43:31;;;;;;;6.45;1.40;;;;;;;14.46;56.14;98918.41;7383634;19;20018;-72
2022/09/20 09:46:22;;;;;;;5.95;1.50;;;;;;;13.99;55.04;98920.91;7380521;19;20017;-70
2022/09/20 09:49:08;;;;;;;9.80;1.48;;;;;;;13.63;58.88;98923.78;7381991;19;20014;-72
2022/09/20 09:51:41;;;;;;;5.50;1.77;;;;;;;13.55;58.56;98916.63;7387432;19;20015;-70
2022/09/20 09:54:16;;;;;;;7.78;1.55;;;;;;;13.59;58.38;98912.66;7387044;19;20407;-71
2022/09/20 09:57:05;;;;;;;3.78;1.10;;;;;;;13.82;59.99;98922.69;7385110;19;20743;-71
2022/09/20 09:59:50;;;;;;;8.73;1.80;;;;;;;13.49;57.86;98919.13;7386977;19;20044;-71
2022/09/20 10:02:46;;;;;;;14.57;1.80;;;;;;;13.53;57.62;98915.13;7388490;19;20020;-71
2022/09/20 10:05:22;;;;;;;5.13;1.60;;;;;;;14.35;54.87;98915.25;7379798;19;20018;-72
2022/09/20 10:08:27;;;;;;;6.43;1.63;;;;;;;14.67;55.85;98912.63;7385138;19;20042;-72
2022/09/20 10:11:05;;;;;;;6.03;1.83;;;;;;;15.23;54.21;98917.13;7382714;19;20490;-71
2022/09/20 10:14:14;;;;;;;3.35;1.20;;;;;;;15.18;55.74;98914.97;7383949;19;20014;-71
2022/09/20 10:16:50;;;;;;;5.10;1.52;;;;;;;14.89;54.70;98913.72;7377533;19;20339;-71
2022/09/20 10:19:54;;;;;;;7.20;1.75;;;;;;;15.01;52.06;98913.34;7381785;19;20022;-71
2022/09/20 10:22:33;;;;;;;7.15;1.40;;;;;;;14.90;54.95;98912.75;7386421;19;20050;-71
2022/09/20 10:25:26;;;;;;;6.88;1.13;;;;;;;14.54;53.86;98922.13;7386407;19;20006;-70
2022/09/20 10:28:04;;;;;;;7.65;1.55;;;;;;;14.58;54.34;98908.28;7375783;19;20018;-71
2022/09/20 10:31:26;;;;;;;6.30;1.65;;;;;;;14.33;57.24;98901.31;7382744;19;20014;-70
2022/09/20 10:34:08;;;;;;;7.45;1.45;;;;;;;14.47;55.95;98906.75;7379463;19;20023;-71
2022/09/20 10:36:38;;;;;;;5.65;1.30;;;;;;;15.20;56.21;98896.97;7383549;19;20018;-71
2022/09/20 10:39:24;;;;;;;3.22;1.20;;;;;;;15.36;51.69;98896.91;7380126;19;20022;-72
2022/09/20 10:45:37;;;;;;;5.07;1.20;;;;;;;16.18;51.14;98890.28;7382318;19;20022;-72
2022/09/20 10:48:34;;;;;;;5.45;1.02;;;;;;;15.32;53.11;98902.75;7375712;19;20150;-71
2022/09/20 10:51:18;;;;;;;5.95;1.75;;;;;;;14.73;53.92;98903.09;7383308;19;20025;-72
2022/09/20 10:54:07;;;;;;;7.47;1.45;;;;;;;15.18;54.40;98904.31;7386100;19;20035;-72
2022/09/20 10:56:45;;;;;;;6.47;1.55;;;;;;;15.07;54.63;98912.69;7379671;19;20031;-70
2022/09/20 10:59:26;;;;;;;5.82;1.40;;;;;;;15.39;51.73;98908.25;7382411;19;20022;-71
2022/09/20 11:02:13;;;;;;;7.03;1.23;;;;;;;15.25;51.17;98909.81;7383211;19;20018;-72
2022/09/20 11:05:25;;;;;;;4.70;1.67;;;;;;;15.52;51.85;98904.00;7386518;19;20405;-71
2022/09/20 11:07:57;;;;;;;9.38;1.60;;;;;;;15.12;53.45;98905.00;7371406;19;20420;-72
2022/09/20 11:10:51;;;;;;;5.85;1.73;;;;;;;14.31;54.95;98906.78;7378398;19;20018;-71
2022/09/20 11:13:26;;;;;;;6.72;1.63;;;;;;;14.30;56.28;98913.09;7375435;19;20014;-72
2022/09/20 11:16:02;;;;;;;8.25;1.40;;;;;;;14.34;56.75;98911.75;7377702;19;20051;-71
2022/09/20 11:18:37;;;;;;;5.60;1.63;;;;;;;14.54;56.19;98904.31;7372993;19;20054;-70
2022/09/20 11:21:19;;;;;;;4.68;1.50;;;;;;;14.73;56.88;98905.78;7377223;19;20030;-71
2022/09/20 11:24:25;;;;;;;6.53;1.10;;;;;;;15.08;50.57;98904.50;7376114;19;20038;-70
2022/09/20 11:26:55;;;;;;;4.90;1.35;;;;;;;15.62;47.96;98895.78;7376987;19;20022;-71
2022/09/20 11:29:35;;;;;;;4.68;1.17;;;;;;;16.47;49.38;98894.88;7372644;19;20014;-71
2022/09/20 11:32:10;;;;;;;7.32;1.45;;;;;;;16.75;50.63;98889.78;7372448;19;20018;-70
2022/09/20 11:34:50;;;;;;;8.30;1.67;;;;;;;16.69;51.48;98890.47;7376156;19;20014;-71
2022/09/20 11:37:17;;;;;;;5.30;1.38;;;;;;;16.57;49.38;98900.78;7371559;19;20120;-72
2022/09/20 11:40:12;;;;;;;4.03;1.33;;;;;;;16.23;51.72;98891.41;7375575;19;20011;-71
2022/09/20 11:42:40;;;;;;;4.53;1.13;;;;;;;16.33;50.11;98893.00;7384725;19;20106;-71
2022/09/20 11:45:11;;;;;;;3.65;1.52;;;;;;;15.59;51.37;98893.47;7381583;19;20809;-70
2022/09/20 11:47:41;;;;;;;7.13;1.50;;;;;;;15.83;50.54;98894.38;7379194;19;20026;-72
2022/09/20 11:50:28;;;;;;;9.57;1.48;;;;;;;15.92;52.67;98888.78;7376447;19;20528;-71
2022/09/20 11:53:27;;;;;;;4.20;1.58;;;;;;;15.97;51.74;98890.94;7378790;19;20407;-71
2022/09/20 11:56:17;;;;;;;6.20;1.25;;;;;;;15.85;52.28;98890.53;7381705;19;20039;-72
2022/09/20 11:58:47;;;;;;;4.82;1.27;;;;;;;15.17;52.42;98891.19;7380572;19;20520;-71
2022/09/20 12:01:24;;;;;;;6.97;1.60;;;;;;;15.00;55.29;98887.72;7377304;19;20335;-72
2022/09/20 12:03:57;;;;;;;11.18;2.05;;;;;;;14.76;55.83;98884.13;7383370;19;20023;-72
2022/09/20 12:06:45;;;;;;;5.93;2.20;;;;;;;14.68;57.61;98881.47;7384178;19;20365;-72
2022/09/20 12:09:34;;;;;;;4.82;1.40;;;;;;;14.50;56.91;98887.78;7376370;19;20018;-73
2022/09/20 12:12:31;;;;;;;5.25;1.60;;;;;;;14.12;58.74;98883.16;7383653;19;20014;-73
2022/09/20 12:15:00;;;;;;;4.32;1.70;;;;;;;14.11;59.52;98878.81;7386094;19;20426;-73
2022/09/20 12:17:44;;;;;;;4.03;1.52;;;;;;;14.11;57.78;98877.00;7386298;19;20018;-72
2022/09/20 12:20:43;;;;;;;3.88;1.30;;;;;;;14.21;57.29;98880.31;7388050;19;20477;-72
2022/09/20 12:23:39;;;;;;;11.93;2.05;;;;;;;14.30;58.02;98882.97;7385382;19;20783;-73
2022/09/20 12:26:12;;;;;;;5.72;1.23;;;;;;;14.60;54.33;98877.00;7385090;19;20010;-73
2022/09/20 12:28:43;;;;;;;7.30;1.63;;;;;;;14.75;55.71;98881.66;7383158;19;20010;-73
2022/09/20 12:31:27;;;;;;;3.30;1.30;;;;;;;14.97;53.94;98874.75;7387157;19;20014;-73
2022/09/20 12:34:08;;;;;;;5.95;1.75;;;;;;;15.32;49.77;98881.44;7388619;19;20608;-72
2022/09/20 12:36:37;;;;;;;4.10;1.30;;;;;;;14.92;51.31;98862.75;7385235;19;21125;-72
2022/09/20 12:39:05;;;;;;;3.33;1.27;;;;;;;15.89;48.30;98867.81;7386157;19;20026;-71